sensor_id;sensor_type;location;lat;lon;timestamp;P1;durP1;ratioP1;P2;durP2;ratioP2
26774;SDS011;14362;51.902;7.626;2023-02-28T00:01:33;11.75;;;6.88;;
26774;SDS011;14362;51.902;7.626;2023-02-28T00:05:35;13.82;;;6.75;;
26774;SDS011;14362;51.902;7.626;2023-02-28T00:09:38;11.57;;;6.25;;
26774;SDS011;14362;51.902;7.626;2023-02-28T00:13:40;8.35;;;5.82;;
26774;SDS011;14362;51.902;7.626;2023-02-28T00:17:43;10.38;;;6.03;;
26774;SDS011;14362;51.902;7.626;2023-02-28T00:21:44;10.02;;;5.95;;
26774;SDS011;14362;51.902;7.626;2023-02-28T00:25:47;9.95;;;6.35;;
26774;SDS011;14362;51.902;7.626;2023-02-28T00:29:49;8.65;;;5.53;;
26774;SDS011;14362;51.902;7.626;2023-02-28T00:33:51;10.43;;;5.63;;
26774;SDS011;14362;51.902;7.626;2023-02-28T00:37:52;8.60;;;5.03;;
26774;SDS011;14362;51.902;7.626;2023-02-28T00:41:55;9.85;;;5.78;;
26774;SDS011;14362;51.902;7.626;2023-02-28T00:45:56;11.32;;;5.65;;
26774;SDS011;14362;51.902;7.626;2023-02-28T00:49:57;9.70;;;5.63;;
26774;SDS011;14362;51.902;7.626;2023-02-28T00:53:59;10.30;;;5.68;;
26774;SDS011;14362;51.902;7.626;2023-02-28T00:58:02;10.02;;;5.68;;
26774;SDS011;14362;51.902;7.626;2023-02-28T01:02:03;9.52;;;5.70;;
26774;SDS011;14362;51.902;7.626;2023-02-28T01:06:04;8.57;;;6.18;;
26774;SDS011;14362;51.902;7.626;2023-02-28T01:10:06;12.18;;;6.38;;
26774;SDS011;14362;51.902;7.626;2023-02-28T01:14:11;11.20;;;6.32;;
26774;SDS011;14362;51.902;7.626;2023-02-28T01:18:13;11.35;;;6.80;;
26774;SDS011;14362;51.902;7.626;2023-02-28T01:22:15;12.18;;;6.55;;
26774;SDS011;14362;51.902;7.626;2023-02-28T01:26:17;11.65;;;6.90;;
26774;SDS011;14362;51.902;7.626;2023-02-28T01:30:21;10.93;;;7.75;;
26774;SDS011;14362;51.902;7.626;2023-02-28T01:34:22;13.30;;;7.13;;
26774;SDS011;14362;51.902;7.626;2023-02-28T01:38:23;10.93;;;7.03;;
26774;SDS011;14362;51.902;7.626;2023-02-28T01:42:25;12.55;;;6.80;;
26774;SDS011;14362;51.902;7.626;2023-02-28T01:46:27;23.33;;;7.50;;
26774;SDS011;14362;51.902;7.626;2023-02-28T01:50:31;9.13;;;6.03;;
26774;SDS011;14362;51.902;7.626;2023-02-28T01:54:35;11.70;;;8.23;;
26774;SDS011;14362;51.902;7.626;2023-02-28T01:58:37;12.95;;;7.68;;
26774;SDS011;14362;51.902;7.626;2023-02-28T02:02:40;12.70;;;7.35;;
26774;SDS011;14362;51.902;7.626;2023-02-28T02:06:44;14.20;;;6.72;;
26774;SDS011;14362;51.902;7.626;2023-02-28T02:10:49;12.40;;;6.85;;
26774;SDS011;14362;51.902;7.626;2023-02-28T02:14:57;11.20;;;6.80;;
26774;SDS011;14362;51.902;7.626;2023-02-28T02:19:08;11.20;;;6.70;;
26774;SDS011;14362;51.902;7.626;2023-02-28T02:28:21;12.07;;;6.65;;
26774;SDS011;14362;51.902;7.626;2023-02-28T02:37:18;13.85;;;6.65;;
26774;SDS011;14362;51.902;7.626;2023-02-28T02:41:33;12.30;;;6.20;;
26774;SDS011;14362;51.902;7.626;2023-02-28T02:45:40;16.20;;;6.85;;
26774;SDS011;14362;51.902;7.626;2023-02-28T02:49:47;8.95;;;6.75;;
26774;SDS011;14362;51.902;7.626;2023-02-28T02:53:55;10.15;;;7.05;;
26774;SDS011;14362;51.902;7.626;2023-02-28T02:58:03;9.60;;;6.35;;
26774;SDS011;14362;51.902;7.626;2023-02-28T03:02:07;13.35;;;6.70;;
26774;SDS011;14362;51.902;7.626;2023-02-28T03:06:12;12.20;;;6.75;;
26774;SDS011;14362;51.902;7.626;2023-02-28T03:10:29;9.82;;;6.28;;
26774;SDS011;14362;51.902;7.626;2023-02-28T03:14:39;14.18;;;6.80;;
26774;SDS011;14362;51.902;7.626;2023-02-28T03:18:51;14.50;;;6.85;;
26774;SDS011;14362;51.902;7.626;2023-02-28T03:23:01;10.18;;;6.55;;
26774;SDS011;14362;51.902;7.626;2023-02-28T03:27:15;10.23;;;6.85;;
26774;SDS011;14362;51.902;7.626;2023-02-28T03:31:21;10.45;;;6.50;;
26774;SDS011;14362;51.902;7.626;2023-02-28T03:35:28;12.10;;;7.43;;
26774;SDS011;14362;51.902;7.626;2023-02-28T03:39:34;13.77;;;7.15;;
26774;SDS011;14362;51.902;7.626;2023-02-28T03:43:40;10.82;;;7.07;;
26774;SDS011;14362;51.902;7.626;2023-02-28T03:47:51;16.35;;;7.22;;
26774;SDS011;14362;51.902;7.626;2023-02-28T03:51:54;10.23;;;6.70;;
26774;SDS011;14362;51.902;7.626;2023-02-28T03:56:01;11.05;;;7.13;;
26774;SDS011;14362;51.902;7.626;2023-02-28T04:00:09;13.93;;;6.60;;
26774;SDS011;14362;51.902;7.626;2023-02-28T04:04:17;11.60;;;7.55;;
26774;SDS011;14362;51.902;7.626;2023-02-28T04:08:19;14.40;;;7.97;;
26774;SDS011;14362;51.902;7.626;2023-02-28T04:12:21;11.45;;;6.50;;
26774;SDS011;14362;51.902;7.626;2023-02-28T04:16:24;11.55;;;6.22;;
26774;SDS011;14362;51.902;7.626;2023-02-28T04:20:25;11.43;;;6.18;;
26774;SDS011;14362;51.902;7.626;2023-02-28T04:24:27;9.88;;;6.38;;
26774;SDS011;14362;51.902;7.626;2023-02-28T04:28:29;10.93;;;5.70;;
26774;SDS011;14362;51.902;7.626;2023-02-28T04:32:32;9.32;;;6.18;;
26774;SDS011;14362;51.902;7.626;2023-02-28T04:36:33;9.88;;;5.80;;
26774;SDS011;14362;51.902;7.626;2023-02-28T04:40:35;10.23;;;6.13;;
26774;SDS011;14362;51.902;7.626;2023-02-28T04:44:36;10.40;;;5.63;;
26774;SDS011;14362;51.902;7.626;2023-02-28T04:48:39;11.70;;;6.25;;
26774;SDS011;14362;51.902;7.626;2023-02-28T04:52:41;14.68;;;6.50;;
26774;SDS011;14362;51.902;7.626;2023-02-28T04:56:42;7.45;;;5.63;;
26774;SDS011;14362;51.902;7.626;2023-02-28T05:00:44;8.35;;;5.45;;
26774;SDS011;14362;51.902;7.626;2023-02-28T05:04:47;12.07;;;6.30;;
26774;SDS011;14362;51.902;7.626;2023-02-28T05:08:48;8.73;;;5.82;;
26774;SDS011;14362;51.902;7.626;2023-02-28T05:12:50;8.48;;;5.70;;
26774;SDS011;14362;51.902;7.626;2023-02-28T05:16:51;12.43;;;6.65;;
26774;SDS011;14362;51.902;7.626;2023-02-28T05:20:54;14.32;;;7.25;;
26774;SDS011;14362;51.902;7.626;2023-02-28T05:24:55;10.63;;;6.90;;
26774;SDS011;14362;51.902;7.626;2023-02-28T05:28:57;9.85;;;5.97;;
26774;SDS011;14362;51.902;7.626;2023-02-28T05:32:58;12.80;;;6.15;;
26774;SDS011;14362;51.902;7.626;2023-02-28T05:37:01;11.85;;;5.72;;
26774;SDS011;14362;51.902;7.626;2023-02-28T05:41:05;11.55;;;7.18;;
26774;SDS011;14362;51.902;7.626;2023-02-28T05:45:08;9.15;;;6.50;;
26774;SDS011;14362;51.902;7.626;2023-02-28T05:49:10;10.82;;;6.55;;
26774;SDS011;14362;51.902;7.626;2023-02-28T05:53:13;10.45;;;6.38;;
26774;SDS011;14362;51.902;7.626;2023-02-28T05:57:15;11.05;;;6.35;;
26774;SDS011;14362;51.902;7.626;2023-02-28T06:01:22;10.07;;;6.70;;
26774;SDS011;14362;51.902;7.626;2023-02-28T06:05:25;13.52;;;6.35;;
26774;SDS011;14362;51.902;7.626;2023-02-28T06:09:29;11.27;;;6.78;;
26774;SDS011;14362;51.902;7.626;2023-02-28T06:13:31;14.70;;;7.30;;
26774;SDS011;14362;51.902;7.626;2023-02-28T06:17:32;9.70;;;6.53;;
26774;SDS011;14362;51.902;7.626;2023-02-28T06:21:34;11.50;;;7.32;;
26774;SDS011;14362;51.902;7.626;2023-02-28T06:25:37;10.88;;;7.10;;
26774;SDS011;14362;51.902;7.626;2023-02-28T06:29:38;11.85;;;7.40;;
26774;SDS011;14362;51.902;7.626;2023-02-28T06:33:40;13.38;;;7.85;;
26774;SDS011;14362;51.902;7.626;2023-02-28T06:37:42;10.70;;;6.80;;
26774;SDS011;14362;51.902;7.626;2023-02-28T06:41:45;9.25;;;6.50;;
26774;SDS011;14362;51.902;7.626;2023-02-28T06:45:48;15.18;;;6.75;;
26774;SDS011;14362;51.902;7.626;2023-02-28T06:49:49;13.15;;;6.25;;
26774;SDS011;14362;51.902;7.626;2023-02-28T06:53:51;10.35;;;7.20;;
26774;SDS011;14362;51.902;7.626;2023-02-28T06:57:54;10.77;;;7.88;;
26774;SDS011;14362;51.902;7.626;2023-02-28T07:01:55;19.85;;;7.97;;
26774;SDS011;14362;51.902;7.626;2023-02-28T07:05:57;10.73;;;7.22;;
26774;SDS011;14362;51.902;7.626;2023-02-28T07:09:59;14.95;;;7.90;;
26774;SDS011;14362;51.902;7.626;2023-02-28T07:14:02;13.15;;;7.35;;
26774;SDS011;14362;51.902;7.626;2023-02-28T07:18:03;10.55;;;7.38;;
26774;SDS011;14362;51.902;7.626;2023-02-28T07:22:05;13.30;;;8.15;;
26774;SDS011;14362;51.902;7.626;2023-02-28T07:26:07;10.40;;;7.28;;
26774;SDS011;14362;51.902;7.626;2023-02-28T07:30:16;9.70;;;6.18;;
26774;SDS011;14362;51.902;7.626;2023-02-28T07:34:18;8.10;;;6.07;;
26774;SDS011;14362;51.902;7.626;2023-02-28T07:38:20;14.45;;;6.80;;
26774;SDS011;14362;51.902;7.626;2023-02-28T07:42:21;11.38;;;5.88;;
26774;SDS011;14362;51.902;7.626;2023-02-28T07:46:24;9.55;;;5.65;;
26774;SDS011;14362;51.902;7.626;2023-02-28T07:50:26;7.88;;;5.63;;
26774;SDS011;14362;51.902;7.626;2023-02-28T07:54:30;9.10;;;5.13;;
26774;SDS011;14362;51.902;7.626;2023-02-28T07:58:32;5.80;;;4.03;;
26774;SDS011;14362;51.902;7.626;2023-02-28T08:02:35;9.48;;;3.83;;
26774;SDS011;14362;51.902;7.626;2023-02-28T08:06:37;5.40;;;3.38;;
26774;SDS011;14362;51.902;7.626;2023-02-28T08:10:38;5.35;;;3.80;;
26774;SDS011;14362;51.902;7.626;2023-02-28T08:14:40;9.40;;;3.90;;
26774;SDS011;14362;51.902;7.626;2023-02-28T08:18:43;8.13;;;3.10;;
26774;SDS011;14362;51.902;7.626;2023-02-28T08:22:44;3.95;;;2.97;;
26774;SDS011;14362;51.902;7.626;2023-02-28T08:26:46;4.53;;;2.92;;
26774;SDS011;14362;51.902;7.626;2023-02-28T08:30:47;5.93;;;2.83;;
26774;SDS011;14362;51.902;7.626;2023-02-28T08:34:50;4.05;;;2.40;;
26774;SDS011;14362;51.902;7.626;2023-02-28T08:38:52;3.92;;;2.35;;
26774;SDS011;14362;51.902;7.626;2023-02-28T08:42:53;4.68;;;2.35;;
26774;SDS011;14362;51.902;7.626;2023-02-28T08:46:55;3.50;;;2.38;;
26774;SDS011;14362;51.902;7.626;2023-02-28T08:50:58;4.03;;;2.50;;
26774;SDS011;14362;51.902;7.626;2023-02-28T08:55:00;4.63;;;2.17;;
26774;SDS011;14362;51.902;7.626;2023-02-28T08:59:02;4.78;;;1.90;;
26774;SDS011;14362;51.902;7.626;2023-02-28T09:03:03;2.85;;;1.90;;
26774;SDS011;14362;51.902;7.626;2023-02-28T09:07:06;3.28;;;1.58;;
26774;SDS011;14362;51.902;7.626;2023-02-28T09:11:07;4.35;;;1.70;;
26774;SDS011;14362;51.902;7.626;2023-02-28T09:15:10;2.28;;;1.85;;
26774;SDS011;14362;51.902;7.626;2023-02-28T09:19:12;2.13;;;1.60;;
26774;SDS011;14362;51.902;7.626;2023-02-28T09:23:15;2.83;;;1.60;;
26774;SDS011;14362;51.902;7.626;2023-02-28T09:27:16;2.63;;;1.77;;
26774;SDS011;14362;51.902;7.626;2023-02-28T09:31:18;2.42;;;1.58;;
26774;SDS011;14362;51.902;7.626;2023-02-28T09:35:22;3.33;;;1.85;;
26774;SDS011;14362;51.902;7.626;2023-02-28T09:39:28;3.85;;;1.50;;
26774;SDS011;14362;51.902;7.626;2023-02-28T09:43:31;1.60;;;1.30;;
26774;SDS011;14362;51.902;7.626;2023-02-28T09:47:36;2.63;;;1.33;;
26774;SDS011;14362;51.902;7.626;2023-02-28T09:51:45;2.17;;;1.40;;
26774;SDS011;14362;51.902;7.626;2023-02-28T09:55:53;2.95;;;1.70;;
26774;SDS011;14362;51.902;7.626;2023-02-28T10:00:02;2.67;;;1.33;;
26774;SDS011;14362;51.902;7.626;2023-02-28T10:04:11;2.38;;;1.15;;
26774;SDS011;14362;51.902;7.626;2023-02-28T10:08:19;1.27;;;1.13;;
26774;SDS011;14362;51.902;7.626;2023-02-28T10:12:28;2.65;;;1.70;;
26774;SDS011;14362;51.902;7.626;2023-02-28T10:16:33;2.17;;;1.60;;
26774;SDS011;14362;51.902;7.626;2023-02-28T10:20:40;1.70;;;1.55;;
26774;SDS011;14362;51.902;7.626;2023-02-28T10:24:44;2.28;;;1.70;;
26774;SDS011;14362;51.902;7.626;2023-02-28T10:28:49;1.53;;;1.43;;
26774;SDS011;14362;51.902;7.626;2023-02-28T10:32:53;2.85;;;1.77;;
26774;SDS011;14362;51.902;7.626;2023-02-28T10:36:55;6.72;;;2.40;;
26774;SDS011;14362;51.902;7.626;2023-02-28T10:41:07;2.17;;;1.50;;
26774;SDS011;14362;51.902;7.626;2023-02-28T10:45:13;2.63;;;1.75;;
26774;SDS011;14362;51.902;7.626;2023-02-28T10:49:17;4.68;;;1.67;;
26774;SDS011;14362;51.902;7.626;2023-02-28T10:53:31;3.85;;;1.83;;
26774;SDS011;14362;51.902;7.626;2023-02-28T10:57:34;4.47;;;1.90;;
26774;SDS011;14362;51.902;7.626;2023-02-28T11:01:39;3.33;;;1.67;;
26774;SDS011;14362;51.902;7.626;2023-02-28T11:05:46;2.95;;;1.83;;
26774;SDS011;14362;51.902;7.626;2023-02-28T11:09:49;3.13;;;1.83;;
26774;SDS011;14362;51.902;7.626;2023-02-28T11:13:52;2.28;;;2.08;;
26774;SDS011;14362;51.902;7.626;2023-02-28T11:17:58;2.10;;;1.63;;
26774;SDS011;14362;51.902;7.626;2023-02-28T11:26:04;1.70;;;1.60;;
26774;SDS011;14362;51.902;7.626;2023-02-28T11:34:26;2.85;;;1.42;;
26774;SDS011;14362;51.902;7.626;2023-02-28T11:38:28;2.87;;;1.93;;
26774;SDS011;14362;51.902;7.626;2023-02-28T11:42:39;2.25;;;1.40;;
26774;SDS011;14362;51.902;7.626;2023-02-28T11:46:52;2.15;;;1.40;;
26774;SDS011;14362;51.902;7.626;2023-02-28T11:51:03;1.45;;;1.33;;
26774;SDS011;14362;51.902;7.626;2023-02-28T11:55:14;1.88;;;1.48;;
26774;SDS011;14362;51.902;7.626;2023-02-28T11:59:30;1.75;;;1.58;;
26774;SDS011;14362;51.902;7.626;2023-02-28T12:03:43;2.13;;;1.88;;
26774;SDS011;14362;51.902;7.626;2023-02-28T12:07:58;2.65;;;1.90;;
26774;SDS011;14362;51.902;7.626;2023-02-28T12:16:27;2.10;;;1.90;;
26774;SDS011;14362;51.902;7.626;2023-02-28T12:20:40;5.03;;;2.38;;
26774;SDS011;14362;51.902;7.626;2023-02-28T12:24:54;2.53;;;1.90;;
26774;SDS011;14362;51.902;7.626;2023-02-28T12:29:22;2.40;;;2.20;;
26774;SDS011;14362;51.902;7.626;2023-02-28T12:33:28;2.50;;;2.30;;
26774;SDS011;14362;51.902;7.626;2023-02-28T12:37:36;3.90;;;2.65;;
26774;SDS011;14362;51.902;7.626;2023-02-28T12:41:45;2.58;;;2.38;;
26774;SDS011;14362;51.902;7.626;2023-02-28T12:45:50;3.25;;;2.15;;
26774;SDS011;14362;51.902;7.626;2023-02-28T12:49:56;3.83;;;2.20;;
26774;SDS011;14362;51.902;7.626;2023-02-28T12:54:04;3.63;;;2.53;;
26774;SDS011;14362;51.902;7.626;2023-02-28T12:58:13;3.50;;;2.78;;
26774;SDS011;14362;51.902;7.626;2023-02-28T13:02:38;5.70;;;2.97;;
26774;SDS011;14362;51.902;7.626;2023-02-28T13:06:59;4.28;;;2.70;;
26774;SDS011;14362;51.902;7.626;2023-02-28T13:11:23;3.85;;;2.80;;
26774;SDS011;14362;51.902;7.626;2023-02-28T13:15:27;5.38;;;2.42;;
26774;SDS011;14362;51.902;7.626;2023-02-28T13:19:30;3.58;;;2.40;;
26774;SDS011;14362;51.902;7.626;2023-02-28T13:23:38;7.45;;;3.65;;
26774;SDS011;14362;51.902;7.626;2023-02-28T13:27:56;4.97;;;2.30;;
26774;SDS011;14362;51.902;7.626;2023-02-28T13:32:27;7.72;;;2.40;;
26774;SDS011;14362;51.902;7.626;2023-02-28T13:36:32;3.67;;;2.00;;
26774;SDS011;14362;51.902;7.626;2023-02-28T13:40:34;2.25;;;1.80;;
26774;SDS011;14362;51.902;7.626;2023-02-28T13:49:25;3.13;;;2.00;;
26774;SDS011;14362;51.902;7.626;2023-02-28T13:58:05;3.25;;;2.08;;
26774;SDS011;14362;51.902;7.626;2023-02-28T14:02:23;4.23;;;1.87;;
26774;SDS011;14362;51.902;7.626;2023-02-28T14:06:38;4.05;;;2.20;;
26774;SDS011;14362;51.902;7.626;2023-02-28T14:10:48;2.70;;;1.92;;
26774;SDS011;14362;51.902;7.626;2023-02-28T14:14:54;3.53;;;1.98;;
26774;SDS011;14362;51.902;7.626;2023-02-28T14:19:00;4.10;;;1.92;;
26774;SDS011;14362;51.902;7.626;2023-02-28T14:27:14;2.35;;;1.95;;
26774;SDS011;14362;51.902;7.626;2023-02-28T14:31:24;3.42;;;2.10;;
26774;SDS011;14362;51.902;7.626;2023-02-28T14:35:39;2.33;;;1.60;;
26774;SDS011;14362;51.902;7.626;2023-02-28T14:39:53;2.47;;;1.92;;
26774;SDS011;14362;51.902;7.626;2023-02-28T14:43:57;2.63;;;1.80;;
26774;SDS011;14362;51.902;7.626;2023-02-28T14:48:00;2.05;;;1.85;;
26774;SDS011;14362;51.902;7.626;2023-02-28T14:52:06;3.72;;;2.10;;
26774;SDS011;14362;51.902;7.626;2023-02-28T14:56:19;3.70;;;2.17;;
26774;SDS011;14362;51.902;7.626;2023-02-28T15:00:23;2.35;;;2.05;;
26774;SDS011;14362;51.902;7.626;2023-02-28T15:04:26;2.63;;;1.90;;
26774;SDS011;14362;51.902;7.626;2023-02-28T15:12:37;2.90;;;2.30;;
26774;SDS011;14362;51.902;7.626;2023-02-28T15:16:41;3.88;;;2.20;;
26774;SDS011;14362;51.902;7.626;2023-02-28T15:20:45;3.13;;;2.35;;
26774;SDS011;14362;51.902;7.626;2023-02-28T15:24:47;2.58;;;2.38;;
26774;SDS011;14362;51.902;7.626;2023-02-28T15:28:55;3.88;;;2.33;;
26774;SDS011;14362;51.902;7.626;2023-02-28T15:33:15;3.97;;;2.30;;
26774;SDS011;14362;51.902;7.626;2023-02-28T15:37:25;3.63;;;2.05;;
26774;SDS011;14362;51.902;7.626;2023-02-28T15:41:29;2.20;;;2.00;;
26774;SDS011;14362;51.902;7.626;2023-02-28T15:45:34;2.97;;;2.35;;
26774;SDS011;14362;51.902;7.626;2023-02-28T15:49:44;5.43;;;2.50;;
26774;SDS011;14362;51.902;7.626;2023-02-28T15:53:48;2.95;;;1.88;;
26774;SDS011;14362;51.902;7.626;2023-02-28T15:57:53;3.05;;;2.13;;
26774;SDS011;14362;51.902;7.626;2023-02-28T16:02:03;2.60;;;2.30;;
26774;SDS011;14362;51.902;7.626;2023-02-28T16:10:42;4.28;;;2.72;;
26774;SDS011;14362;51.902;7.626;2023-02-28T16:14:44;3.35;;;2.58;;
26774;SDS011;14362;51.902;7.626;2023-02-28T16:18:47;3.67;;;2.38;;
26774;SDS011;14362;51.902;7.626;2023-02-28T16:22:49;3.20;;;2.47;;
26774;SDS011;14362;51.902;7.626;2023-02-28T16:26:52;4.93;;;2.95;;
26774;SDS011;14362;51.902;7.626;2023-02-28T16:30:56;4.70;;;2.97;;
26774;SDS011;14362;51.902;7.626;2023-02-28T16:34:59;4.55;;;2.70;;
26774;SDS011;14362;51.902;7.626;2023-02-28T16:39:01;5.13;;;2.53;;
26774;SDS011;14362;51.902;7.626;2023-02-28T16:43:04;4.18;;;2.72;;
26774;SDS011;14362;51.902;7.626;2023-02-28T16:47:08;4.10;;;2.42;;
26774;SDS011;14362;51.902;7.626;2023-02-28T16:51:13;10.18;;;3.10;;
26774;SDS011;14362;51.902;7.626;2023-02-28T16:55:15;3.90;;;2.50;;
26774;SDS011;14362;51.902;7.626;2023-02-28T16:59:17;6.03;;;3.00;;
26774;SDS011;14362;51.902;7.626;2023-02-28T17:07:26;5.00;;;3.15;;
26774;SDS011;14362;51.902;7.626;2023-02-28T17:11:27;4.85;;;3.33;;
26774;SDS011;14362;51.902;7.626;2023-02-28T17:15:29;5.03;;;3.28;;
26774;SDS011;14362;51.902;7.626;2023-02-28T17:19:31;5.25;;;3.22;;
26774;SDS011;14362;51.902;7.626;2023-02-28T17:23:34;5.57;;;3.33;;
26774;SDS011;14362;51.902;7.626;2023-02-28T17:27:36;4.68;;;3.13;;
26774;SDS011;14362;51.902;7.626;2023-02-28T17:31:38;5.22;;;3.50;;
26774;SDS011;14362;51.902;7.626;2023-02-28T17:35:40;6.03;;;3.92;;
26774;SDS011;14362;51.902;7.626;2023-02-28T17:39:43;3.70;;;3.15;;
26774;SDS011;14362;51.902;7.626;2023-02-28T17:43:44;6.05;;;4.18;;
26774;SDS011;14362;51.902;7.626;2023-02-28T17:47:47;7.95;;;3.70;;
26774;SDS011;14362;51.902;7.626;2023-02-28T17:51:50;6.30;;;3.40;;
26774;SDS011;14362;51.902;7.626;2023-02-28T17:55:52;6.70;;;3.88;;
26774;SDS011;14362;51.902;7.626;2023-02-28T17:59:54;4.93;;;3.30;;
26774;SDS011;14362;51.902;7.626;2023-02-28T18:03:55;7.35;;;4.50;;
26774;SDS011;14362;51.902;7.626;2023-02-28T18:07:57;7.72;;;4.97;;
26774;SDS011;14362;51.902;7.626;2023-02-28T18:12:00;8.65;;;5.07;;
26774;SDS011;14362;51.902;7.626;2023-02-28T18:16:01;8.95;;;4.90;;
26774;SDS011;14362;51.902;7.626;2023-02-28T18:20:03;9.20;;;5.80;;
26774;SDS011;14362;51.902;7.626;2023-02-28T18:24:05;7.40;;;5.68;;
26774;SDS011;14362;51.902;7.626;2023-02-28T18:28:08;6.88;;;4.90;;
26774;SDS011;14362;51.902;7.626;2023-02-28T18:32:09;10.05;;;5.50;;
26774;SDS011;14362;51.902;7.626;2023-02-28T18:36:11;6.97;;;5.28;;
26774;SDS011;14362;51.902;7.626;2023-02-28T18:40:12;8.68;;;5.68;;
26774;SDS011;14362;51.902;7.626;2023-02-28T18:44:16;8.10;;;6.15;;
26774;SDS011;14362;51.902;7.626;2023-02-28T18:48:17;8.07;;;5.70;;
26774;SDS011;14362;51.902;7.626;2023-02-28T18:52:19;8.95;;;6.05;;
26774;SDS011;14362;51.902;7.626;2023-02-28T18:56:21;10.77;;;6.85;;
26774;SDS011;14362;51.902;7.626;2023-02-28T19:00:25;8.05;;;5.68;;
26774;SDS011;14362;51.902;7.626;2023-02-28T19:04:26;19.98;;;10.07;;
26774;SDS011;14362;51.902;7.626;2023-02-28T19:08:28;14.50;;;9.07;;
26774;SDS011;14362;51.902;7.626;2023-02-28T19:12:32;13.80;;;8.10;;
26774;SDS011;14362;51.902;7.626;2023-02-28T19:16:35;15.23;;;8.57;;
26774;SDS011;14362;51.902;7.626;2023-02-28T19:20:37;11.38;;;6.82;;
26774;SDS011;14362;51.902;7.626;2023-02-28T19:24:38;10.60;;;6.95;;
26774;SDS011;14362;51.902;7.626;2023-02-28T19:28:40;11.73;;;7.15;;
26774;SDS011;14362;51.902;7.626;2023-02-28T19:32:43;11.70;;;6.88;;
26774;SDS011;14362;51.902;7.626;2023-02-28T19:36:44;11.77;;;7.18;;
26774;SDS011;14362;51.902;7.626;2023-02-28T19:40:46;8.07;;;6.28;;
26774;SDS011;14362;51.902;7.626;2023-02-28T19:44:47;9.10;;;6.88;;
26774;SDS011;14362;51.902;7.626;2023-02-28T19:48:52;9.98;;;6.68;;
26774;SDS011;14362;51.902;7.626;2023-02-28T19:56:56;12.85;;;8.43;;
26774;SDS011;14362;51.902;7.626;2023-02-28T20:00:57;12.25;;;8.25;;
26774;SDS011;14362;51.902;7.626;2023-02-28T20:05:01;12.77;;;7.85;;
26774;SDS011;14362;51.902;7.626;2023-02-28T20:09:03;13.60;;;7.45;;
26774;SDS011;14362;51.902;7.626;2023-02-28T20:13:04;14.40;;;7.70;;
26774;SDS011;14362;51.902;7.626;2023-02-28T20:17:06;12.55;;;7.47;;
26774;SDS011;14362;51.902;7.626;2023-02-28T20:21:09;13.02;;;7.90;;
26774;SDS011;14362;51.902;7.626;2023-02-28T20:25:11;10.55;;;7.90;;
26774;SDS011;14362;51.902;7.626;2023-02-28T20:29:13;15.15;;;9.07;;
26774;SDS011;14362;51.902;7.626;2023-02-28T20:33:14;21.35;;;9.90;;
26774;SDS011;14362;51.902;7.626;2023-02-28T20:37:17;16.27;;;10.52;;
26774;SDS011;14362;51.902;7.626;2023-02-28T20:41:19;14.32;;;9.73;;
26774;SDS011;14362;51.902;7.626;2023-02-28T20:45:21;13.45;;;8.88;;
26774;SDS011;14362;51.902;7.626;2023-02-28T20:49:23;16.73;;;10.00;;
26774;SDS011;14362;51.902;7.626;2023-02-28T20:53:26;12.43;;;8.93;;
26774;SDS011;14362;51.902;7.626;2023-02-28T20:57:28;12.70;;;8.80;;
26774;SDS011;14362;51.902;7.626;2023-02-28T21:01:30;13.80;;;8.88;;
26774;SDS011;14362;51.902;7.626;2023-02-28T21:05:31;14.43;;;8.98;;
26774;SDS011;14362;51.902;7.626;2023-02-28T21:09:34;10.98;;;7.93;;
26774;SDS011;14362;51.902;7.626;2023-02-28T21:13:36;12.52;;;9.32;;
26774;SDS011;14362;51.902;7.626;2023-02-28T21:17:38;12.70;;;8.38;;
26774;SDS011;14362;51.902;7.626;2023-02-28T21:21:40;14.68;;;8.48;;
26774;SDS011;14362;51.902;7.626;2023-02-28T21:25:44;13.10;;;9.27;;
26774;SDS011;14362;51.902;7.626;2023-02-28T21:29:46;13.68;;;8.88;;
26774;SDS011;14362;51.902;7.626;2023-02-28T21:33:47;13.27;;;8.35;;
26774;SDS011;14362;51.902;7.626;2023-02-28T21:37:49;13.68;;;8.63;;
26774;SDS011;14362;51.902;7.626;2023-02-28T21:41:52;13.48;;;8.63;;
26774;SDS011;14362;51.902;7.626;2023-02-28T21:45:55;14.95;;;9.68;;
26774;SDS011;14362;51.902;7.626;2023-02-28T21:50:00;11.35;;;8.15;;
26774;SDS011;14362;51.902;7.626;2023-02-28T21:54:01;13.63;;;8.05;;
26774;SDS011;14362;51.902;7.626;2023-02-28T21:58:04;14.38;;;8.30;;
26774;SDS011;14362;51.902;7.626;2023-02-28T22:02:07;12.73;;;8.27;;
26774;SDS011;14362;51.902;7.626;2023-02-28T22:06:10;11.90;;;7.55;;
26774;SDS011;14362;51.902;7.626;2023-02-28T22:10:12;10.60;;;7.60;;
26774;SDS011;14362;51.902;7.626;2023-02-28T22:14:16;12.73;;;8.93;;
26774;SDS011;14362;51.902;7.626;2023-02-28T22:18:17;14.60;;;8.43;;
26774;SDS011;14362;51.902;7.626;2023-02-28T22:22:19;12.98;;;8.63;;
26774;SDS011;14362;51.902;7.626;2023-02-28T22:26:21;13.77;;;8.98;;
26774;SDS011;14362;51.902;7.626;2023-02-28T22:30:24;20.63;;;11.70;;
26774;SDS011;14362;51.902;7.626;2023-02-28T22:34:26;23.73;;;10.98;;
26774;SDS011;14362;51.902;7.626;2023-02-28T22:38:27;20.58;;;11.75;;
26774;SDS011;14362;51.902;7.626;2023-02-28T22:42:34;20.00;;;10.82;;
26774;SDS011;14362;51.902;7.626;2023-02-28T22:46:37;17.63;;;10.52;;
26774;SDS011;14362;51.902;7.626;2023-02-28T22:50:38;14.93;;;9.80;;
26774;SDS011;14362;51.902;7.626;2023-02-28T22:54:39;18.65;;;10.52;;
26774;SDS011;14362;51.902;7.626;2023-02-28T22:58:41;17.52;;;9.95;;
26774;SDS011;14362;51.902;7.626;2023-02-28T23:02:44;12.70;;;8.85;;
26774;SDS011;14362;51.902;7.626;2023-02-28T23:06:46;14.57;;;9.50;;
26774;SDS011;14362;51.902;7.626;2023-02-28T23:10:48;13.68;;;8.90;;
26774;SDS011;14362;51.902;7.626;2023-02-28T23:14:51;14.65;;;8.80;;
26774;SDS011;14362;51.902;7.626;2023-02-28T23:18:55;13.63;;;8.45;;
26774;SDS011;14362;51.902;7.626;2023-02-28T23:22:57;12.52;;;8.45;;
26774;SDS011;14362;51.902;7.626;2023-02-28T23:26:59;11.77;;;8.00;;
26774;SDS011;14362;51.902;7.626;2023-02-28T23:31:03;12.45;;;8.25;;
26774;SDS011;14362;51.902;7.626;2023-02-28T23:35:06;13.40;;;8.85;;
26774;SDS011;14362;51.902;7.626;2023-02-28T23:39:09;13.55;;;8.20;;
26774;SDS011;14362;51.902;7.626;2023-02-28T23:43:10;15.07;;;8.55;;
26774;SDS011;14362;51.902;7.626;2023-02-28T23:47:12;13.95;;;8.15;;
26774;SDS011;14362;51.902;7.626;2023-02-28T23:51:16;13.30;;;8.18;;
26774;SDS011;14362;51.902;7.626;2023-02-28T23:59:20;13.13;;;8.20;;
